PWSweather.com
Personal Weather Stations
Station Observations
PENICUIKWS
PenicuikGB

PenicuikGB

Lat: 55.830932, Lon: -3.224533000000065

Elevation: 166

Station Type: Fine Offset

http://weather.penicuik.org

High Low Average
Temperature 64.8°F18.2°C 45.7°F7.6°C 56.8°F13.8°C
Dew Point 58.7°F14.8°C 44.9°F7.2°C 52.2°F11.2°C
Winds 10.3 mph 16.6 kmh Calm Calm 3.0 mph S4.8 kmh S
Wind Gusts 21.3 mph34.3 kmh -- 6.0 mph9.7 kmh
Humidity 98% 64% 85%
Pressure 29.90 in1012.5 mb 29.53 in1000.0 mb -
Precipitation 0.01 in0.3 mm - -
Hour Temp Dew Point Humidity Winds Wind Gusts Pressure Precip Precip Rate Daily Precip Total
12:00 AM 53.1°F11.7°C 51.1°F10.6°C 93% 1.5 mph WNW2.4 kmh WNW 3.1 mph5.0 kmh 29.90 in1012.5 mb 0.00 in0.0 mm 0.00 in0.0 mm 0.00 in0.0 mm
12:15 AM 53.6°F12.0°C 51.3°F10.7°C 92% 1.8 mph N2.9 kmh N 3.8 mph6.1 kmh 29.90 in1012.5 mb 0.00 in0.0 mm 0.00 in0.0 mm 0.00 in0.0 mm
12:30 AM 54.0°F12.2°C 51.1°F10.6°C 90% 1.2 mph W1.9 kmh W 2.2 mph3.5 kmh 29.90 in1012.5 mb 0.00 in0.0 mm 0.00 in0.0 mm 0.00 in0.0 mm
12:45 AM 54.0°F12.2°C 50.8°F10.4°C 89% 1.2 mph W1.9 kmh W 2.2 mph3.5 kmh 29.89 in1012.2 mb 0.00 in0.0 mm 0.00 in0.0 mm 0.00 in0.0 mm
01:00 AM 53.6°F12.0°C 50.1°F10.1°C 88% 1.4 mph SW2.3 kmh SW 3.1 mph5.0 kmh 29.89 in1012.2 mb 0.00 in0.0 mm 0.00 in0.0 mm 0.00 in0.0 mm
01:15 AM 53.1°F11.7°C 49.9°F9.9°C 89% 0.8 mph NW1.3 kmh NW 1.6 mph2.6 kmh 29.89 in1012.2 mb 0.00 in0.0 mm 0.00 in0.0 mm 0.00 in0.0 mm
01:30 AM 52.9°F11.6°C 50.0°F10.0°C 90% 0.5 mph NW0.8 kmh NW 1.6 mph2.6 kmh 29.89 in1012.2 mb 0.00 in0.0 mm 0.00 in0.0 mm 0.00 in0.0 mm
01:45 AM 52.7°F11.5°C 49.9°F9.9°C 90% 0.7 mph WSW1.1 kmh WSW 1.6 mph2.6 kmh 29.90 in1012.5 mb 0.00 in0.0 mm 0.00 in0.0 mm 0.00 in0.0 mm
02:00 AM 52.7°F11.5°C 50.2°F10.1°C 91% 0.9 mph NW1.4 kmh NW 2.2 mph3.5 kmh 29.90 in1012.5 mb 0.00 in0.0 mm 0.00 in0.0 mm 0.00 in0.0 mm
02:15 AM 53.1°F11.7°C 50.5°F10.3°C 91% 0.7 mph NNW1.1 kmh NNW 1.6 mph2.6 kmh 29.89 in1012.2 mb 0.00 in0.0 mm 0.00 in0.0 mm 0.00 in0.0 mm
02:30 AM 52.9°F11.6°C 50.3°F10.2°C 91% 1.5 mph NNW2.4 kmh NNW 1.6 mph2.6 kmh 29.88 in1011.9 mb 0.00 in0.0 mm 0.00 in0.0 mm 0.00 in0.0 mm
02:45 AM 52.7°F11.5°C 50.2°F10.1°C 91% 1.5 mph SW2.4 kmh SW 3.1 mph5.0 kmh 29.89 in1012.2 mb 0.00 in0.0 mm 0.00 in0.0 mm 0.00 in0.0 mm
03:00 AM 51.8°F11.0°C 49.0°F9.4°C 90% 0.5 mph SE0.8 kmh SE 1.6 mph2.6 kmh 29.89 in1012.2 mb 0.00 in0.0 mm 0.00 in0.0 mm 0.00 in0.0 mm
03:15 AM 51.3°F10.7°C 49.0°F9.4°C 92% 0.3 mph WSW0.5 kmh WSW 0.7 mph1.1 kmh 29.89 in1012.2 mb 0.00 in0.0 mm 0.00 in0.0 mm 0.00 in0.0 mm
03:30 AM 50.4°F10.2°C 48.1°F8.9°C 92% 0.3 mph NW0.5 kmh NW 1.6 mph2.6 kmh 29.88 in1011.9 mb 0.00 in0.0 mm 0.00 in0.0 mm 0.00 in0.0 mm
03:45 AM 49.5°F9.7°C 47.5°F8.6°C 93% Calm Calm 1.6 mph2.6 kmh 29.89 in1012.2 mb 0.00 in0.0 mm 0.00 in0.0 mm 0.00 in0.0 mm
04:15 AM 48.2°F9.0°C 46.6°F8.1°C 94% Calm Calm -- 29.88 in1011.9 mb 0.00 in0.0 mm 0.00 in0.0 mm 0.00 in0.0 mm
04:30 AM 47.7°F8.7°C 46.3°F7.9°C 95% Calm Calm -- 29.88 in1011.9 mb 0.00 in0.0 mm 0.00 in0.0 mm 0.00 in0.0 mm
04:45 AM 47.3°F8.5°C 45.9°F7.7°C 95% Calm Calm -- 29.88 in1011.9 mb 0.00 in0.0 mm 0.00 in0.0 mm 0.00 in0.0 mm
05:15 AM 46.2°F7.9°C 45.4°F7.4°C 97% Calm Calm -- 29.87 in1011.5 mb 0.00 in0.0 mm 0.00 in0.0 mm 0.00 in0.0 mm
05:30 AM 46.2°F7.9°C 45.4°F7.4°C 97% Calm Calm -- 29.87 in1011.5 mb 0.00 in0.0 mm 0.00 in0.0 mm 0.00 in0.0 mm
05:45 AM 46.2°F7.9°C 45.4°F7.4°C 97% 0.2 mph SW0.3 kmh SW 0.7 mph1.1 kmh 29.88 in1011.9 mb 0.00 in0.0 mm 0.00 in0.0 mm 0.00 in0.0 mm
06:00 AM 46.0°F7.8°C 45.2°F7.3°C 97% Calm Calm -- 29.88 in1011.9 mb 0.00 in0.0 mm 0.00 in0.0 mm 0.00 in0.0 mm
06:15 AM 45.9°F7.7°C 45.1°F7.3°C 97% Calm Calm -- 29.87 in1011.5 mb 0.00 in0.0 mm 0.00 in0.0 mm 0.00 in0.0 mm
06:30 AM 45.7°F7.6°C 44.9°F7.2°C 97% 0.5 mph SW0.8 kmh SW 1.6 mph2.6 kmh 29.87 in1011.5 mb 0.00 in0.0 mm 0.00 in0.0 mm 0.00 in0.0 mm
06:45 AM 45.7°F7.6°C 44.9°F7.2°C 97% 0.1 mph W0.2 kmh W 1.6 mph2.6 kmh 29.86 in1011.2 mb 0.00 in0.0 mm 0.00 in0.0 mm 0.00 in0.0 mm
07:00 AM 45.9°F7.7°C 45.1°F7.3°C 97% 0.8 mph S1.3 kmh S 2.2 mph3.5 kmh 29.87 in1011.5 mb 0.00 in0.0 mm 0.00 in0.0 mm 0.00 in0.0 mm
07:01 AM 45.9°F7.7°C 45.1°F7.3°C 97% 0.8 mph S1.3 kmh S 2.0 mph3.2 kmh 29.86 in1011.2 mb 0.00 in0.0 mm 0.00 in0.0 mm 0.00 in0.0 mm
07:15 AM 46.8°F8.2°C 46.2°F7.9°C 98% 0.9 mph S1.4 kmh S 3.1 mph5.0 kmh 29.87 in1011.5 mb 0.00 in0.0 mm 0.00 in0.0 mm 0.00 in0.0 mm
07:30 AM 48.7°F9.3°C 48.2°F9.0°C 98% 1.0 mph S1.6 kmh S 1.6 mph2.6 kmh 29.87 in1011.5 mb 0.00 in0.0 mm 0.00 in0.0 mm 0.00 in0.0 mm
07:31 AM 48.7°F9.3°C 48.2°F9.0°C 98% 0.9 mph S1.4 kmh S 1.6 mph2.6 kmh 29.86 in1011.2 mb 0.00 in0.0 mm 0.00 in0.0 mm 0.00 in0.0 mm
07:45 AM 49.8°F9.9°C 49.3°F9.6°C 98% 0.1 mph S0.2 kmh S 0.7 mph1.1 kmh 29.86 in1011.2 mb 0.00 in0.0 mm 0.00 in0.0 mm 0.00 in0.0 mm
08:00 AM 50.4°F10.2°C 49.5°F9.7°C 97% 0.5 mph S0.8 kmh S 1.6 mph2.6 kmh 29.85 in1010.8 mb 0.00 in0.0 mm 0.00 in0.0 mm 0.00 in0.0 mm
08:15 AM 51.3°F10.7°C 50.4°F10.2°C 97% Calm Calm -- 29.85 in1010.8 mb 0.00 in0.0 mm 0.00 in0.0 mm 0.00 in0.0 mm
08:16 AM 51.3°F10.7°C 50.4°F10.2°C 97% Calm Calm -- 29.84 in1010.5 mb 0.00 in0.0 mm 0.00 in0.0 mm 0.00 in0.0 mm
08:30 AM 51.3°F10.7°C 50.4°F10.2°C 97% 0.2 mph N0.3 kmh N 1.6 mph2.6 kmh 29.84 in1010.5 mb 0.00 in0.0 mm 0.00 in0.0 mm 0.00 in0.0 mm
08:31 AM 51.3°F10.7°C 50.4°F10.2°C 97% 0.3 mph N0.5 kmh N 1.6 mph2.6 kmh 29.85 in1010.8 mb 0.00 in0.0 mm 0.00 in0.0 mm 0.00 in0.0 mm
08:45 AM 51.3°F10.7°C 50.4°F10.2°C 97% Calm Calm -- 29.84 in1010.5 mb 0.00 in0.0 mm 0.00 in0.0 mm 0.00 in0.0 mm
09:00 AM 51.4°F10.8°C 50.6°F10.3°C 97% Calm Calm -- 29.84 in1010.5 mb 0.00 in0.0 mm 0.00 in0.0 mm 0.00 in0.0 mm
09:15 AM 52.3°F11.3°C 51.2°F10.7°C 96% Calm Calm -- 29.85 in1010.8 mb 0.00 in0.0 mm 0.00 in0.0 mm 0.00 in0.0 mm
09:30 AM 53.1°F11.7°C 51.7°F10.9°C 95% 1.0 mph N1.6 kmh N 3.1 mph5.0 kmh 29.84 in1010.5 mb 0.00 in0.0 mm 0.00 in0.0 mm 0.00 in0.0 mm
09:45 AM 54.5°F12.5°C 52.8°F11.6°C 94% 1.1 mph SSE1.8 kmh SSE 2.2 mph3.5 kmh 29.84 in1010.5 mb 0.00 in0.0 mm 0.00 in0.0 mm 0.00 in0.0 mm
10:00 AM 56.1°F13.4°C 54.1°F12.3°C 93% 0.5 mph N0.8 kmh N 2.2 mph3.5 kmh 29.84 in1010.5 mb 0.00 in0.0 mm 0.00 in0.0 mm 0.00 in0.0 mm
10:15 AM 57.4°F14.1°C 53.6°F12.0°C 87% 2.1 mph S3.4 kmh S 5.4 mph8.7 kmh 29.85 in1010.8 mb 0.00 in0.0 mm 0.00 in0.0 mm 0.00 in0.0 mm
10:30 AM 57.0°F13.9°C 52.2°F11.2°C 84% 2.2 mph SSE3.5 kmh SSE 3.8 mph6.1 kmh 29.83 in1010.2 mb 0.00 in0.0 mm 0.00 in0.0 mm 0.00 in0.0 mm
10:45 AM 57.9°F14.4°C 52.5°F11.4°C 82% 2.1 mph SE3.4 kmh SE 4.5 mph7.2 kmh 29.80 in1009.1 mb 0.00 in0.0 mm 0.00 in0.0 mm 0.00 in0.0 mm
11:30 AM 59.2°F15.1°C 52.7°F11.5°C 79% 2.9 mph S4.7 kmh S 6.9 mph11.1 kmh 29.77 in1008.1 mb 0.00 in0.0 mm 0.00 in0.0 mm 0.00 in0.0 mm
11:45 AM 59.4°F15.2°C 52.5°F11.4°C 78% 4.5 mph S7.2 kmh S 7.6 mph12.2 kmh 29.76 in1007.8 mb 0.00 in0.0 mm 0.00 in0.0 mm 0.00 in0.0 mm
12:00 PM 60.8°F16.0°C 52.8°F11.6°C 75% 4.1 mph E6.6 kmh E 8.3 mph13.4 kmh 29.77 in1008.1 mb 0.00 in0.0 mm 0.00 in0.0 mm 0.00 in0.0 mm
12:15 PM 60.6°F15.9°C 52.3°F11.3°C 74% 5.9 mph WSW9.5 kmh WSW 10.7 mph17.2 kmh 29.75 in1007.5 mb 0.00 in0.0 mm 0.00 in0.0 mm 0.00 in0.0 mm
12:30 PM 60.6°F15.9°C 52.3°F11.3°C 74% 3.4 mph S5.5 kmh S 7.6 mph12.2 kmh 29.76 in1007.8 mb 0.00 in0.0 mm 0.00 in0.0 mm 0.00 in0.0 mm
12:45 PM 60.4°F15.8°C 52.1°F11.2°C 74% 4.1 mph SSE6.6 kmh SSE 6.0 mph9.7 kmh 29.75 in1007.5 mb 0.00 in0.0 mm 0.00 in0.0 mm 0.00 in0.0 mm
01:00 PM 62.2°F16.8°C 52.7°F11.5°C 71% 3.9 mph SSE6.3 kmh SSE 6.0 mph9.7 kmh 29.74 in1007.1 mb 0.00 in0.0 mm 0.00 in0.0 mm 0.00 in0.0 mm
01:15 PM 64.8°F18.2°C 52.3°F11.3°C 64% 4.0 mph S6.4 kmh S 9.8 mph15.8 kmh 29.73 in1006.8 mb 0.00 in0.0 mm 0.00 in0.0 mm 0.00 in0.0 mm
01:45 PM 63.0°F17.2°C 51.4°F10.8°C 66% 2.6 mph WSW4.2 kmh WSW 4.5 mph7.2 kmh 29.72 in1006.4 mb 0.00 in0.0 mm 0.00 in0.0 mm 0.00 in0.0 mm
02:00 PM 61.9°F16.6°C 53.9°F12.2°C 75% 2.1 mph N3.4 kmh N 3.1 mph5.0 kmh 29.71 in1006.1 mb 0.00 in0.0 mm 0.00 in0.0 mm 0.00 in0.0 mm
02:15 PM 60.8°F16.0°C 54.6°F12.6°C 80% 1.1 mph WNW1.8 kmh WNW 2.2 mph3.5 kmh 29.70 in1005.8 mb 0.01 in0.3 mm 0.04 in1.0 mm 0.01 in0.3 mm
02:30 PM 61.7°F16.5°C 56.2°F13.4°C 82% 1.7 mph NNE2.7 kmh NNE 3.8 mph6.1 kmh 29.69 in1005.4 mb 0.01 in0.3 mm 0.00 in0.0 mm 0.01 in0.3 mm
02:45 PM 61.3°F16.3°C 56.1°F13.4°C 83% 3.0 mph NW4.8 kmh NW 3.8 mph6.1 kmh 29.68 in1005.1 mb 0.01 in0.3 mm 0.00 in0.0 mm 0.01 in0.3 mm
03:15 PM 61.0°F16.1°C 56.1°F13.4°C 84% 1.7 mph N2.7 kmh N 3.1 mph5.0 kmh 29.66 in1004.4 mb 0.00 in0.0 mm 0.00 in0.0 mm 0.01 in0.3 mm
03:30 PM 60.6°F15.9°C 56.7°F13.7°C 87% 1.4 mph NW2.3 kmh NW 2.2 mph3.5 kmh 29.66 in1004.4 mb 0.00 in0.0 mm 0.00 in0.0 mm 0.01 in0.3 mm
03:45 PM 61.2°F16.2°C 57.6°F14.2°C 88% 1.1 mph N1.8 kmh N 3.1 mph5.0 kmh 29.65 in1004.1 mb 0.00 in0.0 mm 0.00 in0.0 mm 0.01 in0.3 mm
04:00 PM 61.7°F16.5°C 58.4°F14.7°C 89% 5.7 mph NE9.2 kmh NE 12.1 mph19.5 kmh 29.64 in1003.7 mb 0.00 in0.0 mm 0.00 in0.0 mm 0.01 in0.3 mm
04:15 PM 63.0°F17.2°C 58.7°F14.8°C 86% 5.0 mph SW8.0 kmh SW 6.9 mph11.1 kmh 29.63 in1003.4 mb 0.00 in0.0 mm 0.00 in0.0 mm 0.01 in0.3 mm
04:30 PM 63.1°F17.3°C 58.6°F14.8°C 85% 4.7 mph WNW7.6 kmh WNW 7.6 mph12.2 kmh 29.61 in1002.7 mb 0.00 in0.0 mm 0.00 in0.0 mm 0.01 in0.3 mm
04:45 PM 62.8°F17.1°C 57.9°F14.4°C 84% 4.9 mph NNW7.9 kmh NNW 8.3 mph13.4 kmh 29.60 in1002.4 mb 0.00 in0.0 mm 0.00 in0.0 mm 0.01 in0.3 mm
05:00 PM 63.0°F17.2°C 58.1°F14.5°C 84% 5.2 mph ENE8.4 kmh ENE 11.4 mph18.3 kmh 29.60 in1002.4 mb 0.00 in0.0 mm 0.00 in0.0 mm 0.01 in0.3 mm
05:30 PM 63.3°F17.4°C 57.4°F14.1°C 81% 9.2 mph WSW14.8 kmh WSW 18.3 mph29.5 kmh 29.58 in1001.7 mb 0.00 in0.0 mm 0.00 in0.0 mm 0.01 in0.3 mm
05:45 PM 63.3°F17.4°C 57.1°F13.9°C 80% 5.9 mph SW9.5 kmh SW 7.6 mph12.2 kmh 29.57 in1001.4 mb 0.00 in0.0 mm 0.00 in0.0 mm 0.01 in0.3 mm
06:00 PM 63.0°F17.2°C 56.7°F13.7°C 80% 6.5 mph SE10.5 kmh SE 15.2 mph24.5 kmh 29.58 in1001.7 mb 0.00 in0.0 mm 0.00 in0.0 mm 0.01 in0.3 mm
06:15 PM 63.0°F17.2°C 57.1°F13.9°C 81% 6.8 mph N10.9 kmh N 12.1 mph19.5 kmh 29.58 in1001.7 mb 0.00 in0.0 mm 0.00 in0.0 mm 0.01 in0.3 mm
06:30 PM 63.0°F17.2°C 57.4°F14.1°C 82% 7.7 mph ESE12.4 kmh ESE 12.1 mph19.5 kmh 29.57 in1001.4 mb 0.00 in0.0 mm 0.00 in0.0 mm 0.01 in0.3 mm
06:45 PM 63.0°F17.2°C 57.1°F13.9°C 81% 7.8 mph NE12.6 kmh NE 19.7 mph31.7 kmh 29.58 in1001.7 mb 0.00 in0.0 mm 0.00 in0.0 mm 0.01 in0.3 mm
07:15 PM 62.8°F17.1°C 56.5°F13.6°C 80% 9.8 mph SE15.8 kmh SE 13.6 mph21.9 kmh 29.57 in1001.4 mb 0.00 in0.0 mm 0.00 in0.0 mm 0.01 in0.3 mm
07:30 PM 62.6°F17.0°C 56.0°F13.3°C 79% 6.6 mph S10.6 kmh S 15.2 mph24.5 kmh 29.56 in1001.0 mb 0.00 in0.0 mm 0.00 in0.0 mm 0.01 in0.3 mm
07:45 PM 62.6°F17.0°C 56.0°F13.3°C 79% 10.3 mph E16.6 kmh E 19.0 mph30.6 kmh 29.56 in1001.0 mb 0.00 in0.0 mm 0.00 in0.0 mm 0.01 in0.3 mm
08:00 PM 63.0°F17.2°C 56.0°F13.3°C 78% 9.6 mph SE15.4 kmh SE 15.9 mph25.6 kmh 29.56 in1001.0 mb 0.00 in0.0 mm 0.00 in0.0 mm 0.01 in0.3 mm
08:15 PM 63.1°F17.3°C 55.8°F13.2°C 77% 9.0 mph NW14.5 kmh NW 13.6 mph21.9 kmh 29.56 in1001.0 mb 0.00 in0.0 mm 0.00 in0.0 mm 0.01 in0.3 mm
08:30 PM 63.1°F17.3°C 55.5°F13.1°C 76% 8.4 mph NNW13.5 kmh NNW 12.1 mph19.5 kmh 29.56 in1001.0 mb 0.00 in0.0 mm 0.00 in0.0 mm 0.01 in0.3 mm
08:45 PM 63.1°F17.3°C 55.5°F13.1°C 76% 9.1 mph N14.6 kmh N 12.1 mph19.5 kmh 29.56 in1001.0 mb 0.00 in0.0 mm 0.00 in0.0 mm 0.01 in0.3 mm
09:00 PM 63.0°F17.2°C 55.7°F13.2°C 77% 5.0 mph NNW8.0 kmh NNW 7.6 mph12.2 kmh 29.57 in1001.4 mb 0.00 in0.0 mm 0.00 in0.0 mm 0.01 in0.3 mm
09:15 PM 63.1°F17.3°C 55.5°F13.1°C 76% 6.2 mph NW10.0 kmh NW 11.4 mph18.3 kmh 29.57 in1001.4 mb 0.00 in0.0 mm 0.00 in0.0 mm 0.01 in0.3 mm
09:30 PM 62.8°F17.1°C 54.4°F12.4°C 74% 7.3 mph S11.7 kmh S 11.4 mph18.3 kmh 29.57 in1001.4 mb 0.00 in0.0 mm 0.00 in0.0 mm 0.01 in0.3 mm
09:31 PM 62.6°F17.0°C 54.2°F12.3°C 74% 7.5 mph SSE12.1 kmh SSE 11.4 mph18.3 kmh 29.56 in1001.0 mb 0.00 in0.0 mm 0.00 in0.0 mm 0.01 in0.3 mm
09:45 PM 62.6°F17.0°C 53.8°F12.1°C 73% 5.6 mph NNW9.0 kmh NNW 9.8 mph15.8 kmh 29.57 in1001.4 mb 0.00 in0.0 mm 0.00 in0.0 mm 0.01 in0.3 mm
10:00 PM 62.4°F16.9°C 54.0°F12.2°C 74% 5.2 mph NNW8.4 kmh NNW 9.2 mph14.8 kmh 29.57 in1001.4 mb 0.00 in0.0 mm 0.00 in0.0 mm 0.01 in0.3 mm
10:01 PM 62.4°F16.9°C 54.0°F12.2°C 74% 5.0 mph N8.0 kmh N 9.2 mph14.8 kmh 29.56 in1001.0 mb 0.00 in0.0 mm 0.00 in0.0 mm 0.01 in0.3 mm
10:14 PM 62.2°F16.8°C 53.5°F11.9°C 73% 7.6 mph ENE12.2 kmh ENE 13.6 mph21.9 kmh 29.55 in1000.7 mb 0.00 in0.0 mm 0.00 in0.0 mm 0.01 in0.3 mm
10:15 PM 62.2°F16.8°C 53.5°F11.9°C 73% 7.6 mph ENE12.2 kmh ENE 13.6 mph21.9 kmh 29.55 in1000.7 mb 0.00 in0.0 mm 0.00 in0.0 mm 0.01 in0.3 mm
10:16 PM 62.1°F16.7°C 53.3°F11.8°C 73% 7.5 mph NE12.1 kmh NE 13.6 mph21.9 kmh 29.55 in1000.7 mb 0.00 in0.0 mm 0.00 in0.0 mm 0.01 in0.3 mm
10:29 PM 62.1°F16.7°C 52.9°F11.6°C 72% 7.2 mph SE11.6 kmh SE 21.3 mph34.3 kmh 29.55 in1000.7 mb 0.00 in0.0 mm 0.00 in0.0 mm 0.01 in0.3 mm
10:45 PM 61.9°F16.6°C 53.1°F11.7°C 73% 5.3 mph NE8.5 kmh NE 9.2 mph14.8 kmh 29.55 in1000.7 mb 0.00 in0.0 mm 0.00 in0.0 mm 0.01 in0.3 mm
11:00 PM 61.5°F16.4°C 53.2°F11.8°C 74% 4.7 mph SE7.6 kmh SE 7.6 mph12.2 kmh 29.55 in1000.7 mb 0.00 in0.0 mm 0.00 in0.0 mm 0.01 in0.3 mm
11:15 PM 61.5°F16.4°C 53.2°F11.8°C 74% 4.4 mph SSW7.1 kmh SSW 6.0 mph9.7 kmh 29.54 in1000.3 mb 0.00 in0.0 mm 0.00 in0.0 mm 0.01 in0.3 mm
11:30 PM 61.2°F16.2°C 53.2°F11.8°C 75% 5.4 mph NNW8.7 kmh NNW 9.8 mph15.8 kmh 29.53 in1000.0 mb 0.00 in0.0 mm 0.00 in0.0 mm 0.01 in0.3 mm
11:31 PM 61.2°F16.2°C 53.2°F11.8°C 75% 6.0 mph W9.7 kmh W 9.8 mph15.8 kmh 29.53 in1000.0 mb 0.00 in0.0 mm 0.00 in0.0 mm 0.01 in0.3 mm
11:45 PM 60.8°F16.0°C 52.8°F11.6°C 75% 4.2 mph E6.8 kmh E 9.8 mph15.8 kmh 29.53 in1000.0 mb 0.00 in0.0 mm 0.00 in0.0 mm 0.01 in0.3 mm